sensor_id;sensor_type;location;lat;lon;timestamp;pressure;altitude;pressure_sealevel;temperature;humidity
71778;BME280;59609;52.430;4.668;2023-05-22T00:01:10;101605.06;;;14.87;100.00
71778;BME280;59609;52.430;4.668;2023-05-22T00:03:36;101612.31;;;14.88;100.00
71778;BME280;59609;52.430;4.668;2023-05-22T00:06:01;101604.19;;;14.87;100.00
71778;BME280;59609;52.430;4.668;2023-05-22T00:08:27;101605.56;;;14.83;100.00
71778;BME280;59609;52.430;4.668;2023-05-22T00:10:53;101604.19;;;14.79;100.00
71778;BME280;59609;52.430;4.668;2023-05-22T00:13:19;101599.34;;;14.81;100.00
71778;BME280;59609;52.430;4.668;2023-05-22T00:15:45;101595.50;;;14.82;100.00
71778;BME280;59609;52.430;4.668;2023-05-22T00:18:10;101591.03;;;14.81;100.00
71778;BME280;59609;52.430;4.668;2023-05-22T00:20:37;101587.72;;;14.77;100.00
71778;BME280;59609;52.430;4.668;2023-05-22T00:23:05;101590.81;;;14.82;100.00
71778;BME280;59609;52.430;4.668;2023-05-22T00:25:34;101592.22;;;14.78;100.00
71778;BME280;59609;52.430;4.668;2023-05-22T00:28:00;101597.97;;;14.77;100.00
71778;BME280;59609;52.430;4.668;2023-05-22T00:30:26;101595.53;;;14.74;100.00
71778;BME280;59609;52.430;4.668;2023-05-22T00:32:51;101600.91;;;14.75;100.00
71778;BME280;59609;52.430;4.668;2023-05-22T00:35:16;101599.88;;;14.76;100.00
71778;BME280;59609;52.430;4.668;2023-05-22T00:37:42;101595.69;;;14.72;100.00
71778;BME280;59609;52.430;4.668;2023-05-22T00:40:10;101588.97;;;14.67;100.00
71778;BME280;59609;52.430;4.668;2023-05-22T00:42:36;101604.72;;;14.74;100.00
71778;BME280;59609;52.430;4.668;2023-05-22T00:45:02;101602.13;;;14.73;100.00
71778;BME280;59609;52.430;4.668;2023-05-22T00:47:27;101609.38;;;14.82;100.00
71778;BME280;59609;52.430;4.668;2023-05-22T00:49:53;101603.31;;;14.86;100.00
71778;BME280;59609;52.430;4.668;2023-05-22T00:52:18;101607.63;;;14.89;100.00
71778;BME280;59609;52.430;4.668;2023-05-22T00:54:44;101607.44;;;14.99;100.00
71778;BME280;59609;52.430;4.668;2023-05-22T00:57:10;101613.34;;;15.04;100.00
71778;BME280;59609;52.430;4.668;2023-05-22T00:59:35;101603.63;;;15.08;100.00
71778;BME280;59609;52.430;4.668;2023-05-22T01:02:01;101610.38;;;15.13;100.00
71778;BME280;59609;52.430;4.668;2023-05-22T01:04:27;101592.31;;;15.09;100.00
71778;BME280;59609;52.430;4.668;2023-05-22T01:06:57;101589.41;;;15.03;100.00
71778;BME280;59609;52.430;4.668;2023-05-22T01:15:31;101604.00;;;14.97;100.00
71778;BME280;59609;52.430;4.668;2023-05-22T01:18:13;101605.72;;;14.89;100.00
71778;BME280;59609;52.430;4.668;2023-05-22T01:20:52;101592.38;;;14.93;100.00
71778;BME280;59609;52.430;4.668;2023-05-22T01:26:21;101593.59;;;14.90;100.00
71778;BME280;59609;52.430;4.668;2023-05-22T01:29:29;101579.00;;;14.97;100.00
71778;BME280;59609;52.430;4.668;2023-05-22T01:32:01;101579.34;;;15.02;100.00
71778;BME280;59609;52.430;4.668;2023-05-22T01:34:27;101567.34;;;15.09;100.00
71778;BME280;59609;52.430;4.668;2023-05-22T01:36:55;101544.63;;;15.06;100.00
71778;BME280;59609;52.430;4.668;2023-05-22T01:39:23;101548.63;;;15.03;100.00
71778;BME280;59609;52.430;4.668;2023-05-22T01:41:49;101539.59;;;15.09;100.00
71778;BME280;59609;52.430;4.668;2023-05-22T01:44:14;101525.19;;;15.06;100.00
71778;BME280;59609;52.430;4.668;2023-05-22T01:46:40;101533.72;;;15.04;100.00
71778;BME280;59609;52.430;4.668;2023-05-22T01:49:05;101528.03;;;14.98;100.00
71778;BME280;59609;52.430;4.668;2023-05-22T01:51:51;101514.69;;;14.93;100.00
71778;BME280;59609;52.430;4.668;2023-05-22T01:54:31;101513.66;;;14.86;100.00
71778;BME280;59609;52.430;4.668;2023-05-22T01:57:18;101517.47;;;14.85;100.00
71778;BME280;59609;52.430;4.668;2023-05-22T01:59:47;101501.38;;;14.80;100.00
71778;BME280;59609;52.430;4.668;2023-05-22T02:02:18;101492.19;;;14.80;100.00
71778;BME280;59609;52.430;4.668;2023-05-22T02:04:50;101486.63;;;14.80;100.00
71778;BME280;59609;52.430;4.668;2023-05-22T02:07:18;101507.28;;;14.77;100.00
71778;BME280;59609;52.430;4.668;2023-05-22T02:09:46;101506.94;;;14.72;100.00
71778;BME280;59609;52.430;4.668;2023-05-22T02:12:12;101487.00;;;14.69;100.00
71778;BME280;59609;52.430;4.668;2023-05-22T02:14:40;101472.63;;;14.65;100.00
71778;BME280;59609;52.430;4.668;2023-05-22T02:17:06;101478.00;;;14.67;100.00
71778;BME280;59609;52.430;4.668;2023-05-22T02:19:34;101488.75;;;14.70;100.00
71778;BME280;59609;52.430;4.668;2023-05-22T02:22:00;101490.34;;;14.64;100.00
71778;BME280;59609;52.430;4.668;2023-05-22T02:24:25;101482.34;;;14.61;100.00
71778;BME280;59609;52.430;4.668;2023-05-22T02:26:51;101483.41;;;14.60;100.00
71778;BME280;59609;52.430;4.668;2023-05-22T02:39:21;101475.09;;;14.60;100.00
71778;BME280;59609;52.430;4.668;2023-05-22T02:41:47;101465.22;;;14.58;100.00
71778;BME280;59609;52.430;4.668;2023-05-22T02:44:12;101451.53;;;14.48;100.00
71778;BME280;59609;52.430;4.668;2023-05-22T02:46:38;101460.19;;;14.45;100.00
71778;BME280;59609;52.430;4.668;2023-05-22T02:49:03;101474.09;;;14.37;100.00
71778;BME280;59609;52.430;4.668;2023-05-22T02:51:28;101465.78;;;14.37;100.00
71778;BME280;59609;52.430;4.668;2023-05-22T02:53:54;101471.13;;;14.38;100.00
71778;BME280;59609;52.430;4.668;2023-05-22T02:56:19;101472.69;;;14.41;100.00
71778;BME280;59609;52.430;4.668;2023-05-22T02:58:46;101462.31;;;14.35;100.00
71778;BME280;59609;52.430;4.668;2023-05-22T03:01:11;101466.47;;;14.39;100.00
71778;BME280;59609;52.430;4.668;2023-05-22T03:03:37;101458.66;;;14.34;100.00
71778;BME280;59609;52.430;4.668;2023-05-22T03:06:02;101458.16;;;14.39;100.00
71778;BME280;59609;52.430;4.668;2023-05-22T03:08:28;101447.91;;;14.39;100.00
71778;BME280;59609;52.430;4.668;2023-05-22T03:10:56;101454.16;;;14.41;100.00
71778;BME280;59609;52.430;4.668;2023-05-22T03:13:22;101453.28;;;14.41;100.00
71778;BME280;59609;52.430;4.668;2023-05-22T03:15:47;101458.81;;;14.41;100.00
71778;BME280;59609;52.430;4.668;2023-05-22T03:18:13;101456.41;;;14.46;100.00
71778;BME280;59609;52.430;4.668;2023-05-22T03:20:38;101445.47;;;14.44;100.00
71778;BME280;59609;52.430;4.668;2023-05-22T03:23:04;101452.94;;;14.44;100.00
71778;BME280;59609;52.430;4.668;2023-05-22T03:25:29;101454.66;;;14.45;100.00
71778;BME280;59609;52.430;4.668;2023-05-22T03:27:55;101450.50;;;14.41;100.00
71778;BME280;59609;52.430;4.668;2023-05-22T03:30:20;101464.38;;;14.41;100.00
71778;BME280;59609;52.430;4.668;2023-05-22T03:32:46;101460.03;;;14.38;100.00
71778;BME280;59609;52.430;4.668;2023-05-22T03:35:11;101463.38;;;14.34;100.00
71778;BME280;59609;52.430;4.668;2023-05-22T03:37:39;101455.88;;;14.34;100.00
71778;BME280;59609;52.430;4.668;2023-05-22T03:40:05;101458.50;;;14.36;100.00
71778;BME280;59609;52.430;4.668;2023-05-22T03:42:31;101456.03;;;14.33;100.00
71778;BME280;59609;52.430;4.668;2023-05-22T03:44:57;101454.69;;;14.37;100.00
71778;BME280;59609;52.430;4.668;2023-05-22T03:47:22;101443.22;;;14.32;100.00
71778;BME280;59609;52.430;4.668;2023-05-22T03:49:47;101439.41;;;14.33;100.00
71778;BME280;59609;52.430;4.668;2023-05-22T03:52:13;101448.78;;;14.40;100.00
71778;BME280;59609;52.430;4.668;2023-05-22T03:54:38;101442.91;;;14.35;100.00
71778;BME280;59609;52.430;4.668;2023-05-22T03:57:04;101460.59;;;14.34;100.00
71778;BME280;59609;52.430;4.668;2023-05-22T03:59:29;101472.34;;;14.36;100.00
71778;BME280;59609;52.430;4.668;2023-05-22T04:01:55;101470.25;;;14.38;100.00
71778;BME280;59609;52.430;4.668;2023-05-22T04:04:22;101456.59;;;14.36;100.00
71778;BME280;59609;52.430;4.668;2023-05-22T04:06:51;101483.78;;;14.41;100.00
71778;BME280;59609;52.430;4.668;2023-05-22T04:09:17;101471.31;;;14.37;100.00
71778;BME280;59609;52.430;4.668;2023-05-22T04:11:42;101479.09;;;14.41;100.00
71778;BME280;59609;52.430;4.668;2023-05-22T04:14:09;101465.94;;;14.43;100.00
71778;BME280;59609;52.430;4.668;2023-05-22T04:16:34;101488.63;;;14.47;100.00
71778;BME280;59609;52.430;4.668;2023-05-22T04:19:03;101493.47;;;14.53;100.00
71778;BME280;59609;52.430;4.668;2023-05-22T04:21:31;101495.53;;;14.51;100.00
71778;BME280;59609;52.430;4.668;2023-05-22T04:23:59;101497.94;;;14.62;100.00
71778;BME280;59609;52.430;4.668;2023-05-22T04:26:25;101499.69;;;14.63;100.00
71778;BME280;59609;52.430;4.668;2023-05-22T04:28:53;101500.72;;;14.70;100.00
71778;BME280;59609;52.430;4.668;2023-05-22T04:31:18;101508.31;;;14.76;100.00
71778;BME280;59609;52.430;4.668;2023-05-22T04:33:47;101503.13;;;14.73;100.00
71778;BME280;59609;52.430;4.668;2023-05-22T04:36:14;101491.66;;;14.76;100.00
71778;BME280;59609;52.430;4.668;2023-05-22T04:38:39;101513.16;;;14.82;100.00
71778;BME280;59609;52.430;4.668;2023-05-22T04:41:05;101502.25;;;14.81;100.00
71778;BME280;59609;52.430;4.668;2023-05-22T04:43:33;101501.84;;;14.92;100.00
71778;BME280;59609;52.430;4.668;2023-05-22T04:45:58;101512.91;;;15.00;100.00
71778;BME280;59609;52.430;4.668;2023-05-22T04:48:24;101503.00;;;15.06;100.00
71778;BME280;59609;52.430;4.668;2023-05-22T04:50:50;101505.56;;;15.15;100.00
71778;BME280;59609;52.430;4.668;2023-05-22T04:53:16;101501.66;;;15.32;100.00
71778;BME280;59609;52.430;4.668;2023-05-22T04:55:42;101514.16;;;16.13;100.00
71778;BME280;59609;52.430;4.668;2023-05-22T04:58:07;101509.41;;;16.59;100.00
71778;BME280;59609;52.430;4.668;2023-05-22T05:00:33;101512.09;;;16.81;99.78
71778;BME280;59609;52.430;4.668;2023-05-22T05:02:59;101508.72;;;17.15;98.37
71778;BME280;59609;52.430;4.668;2023-05-22T05:05:24;101518.22;;;17.35;95.46
71778;BME280;59609;52.430;4.668;2023-05-22T05:07:50;101520.03;;;17.43;95.73
71778;BME280;59609;52.430;4.668;2023-05-22T05:10:16;101518.22;;;17.35;95.15
71778;BME280;59609;52.430;4.668;2023-05-22T05:12:42;101523.31;;;17.32;96.16
71778;BME280;59609;52.430;4.668;2023-05-22T05:15:07;101520.50;;;17.46;95.08
71778;BME280;59609;52.430;4.668;2023-05-22T05:17:33;101523.31;;;17.61;95.23
71778;BME280;59609;52.430;4.668;2023-05-22T05:19:58;101518.97;;;17.59;93.85
71778;BME280;59609;52.430;4.668;2023-05-22T05:22:24;101523.66;;;17.58;95.86
71778;BME280;59609;52.430;4.668;2023-05-22T05:24:50;101530.97;;;17.59;94.64
71778;BME280;59609;52.430;4.668;2023-05-22T05:27:15;101526.19;;;17.38;95.17
71778;BME280;59609;52.430;4.668;2023-05-22T05:29:41;101526.44;;;17.08;97.02
71778;BME280;59609;52.430;4.668;2023-05-22T05:32:06;101529.38;;;16.91;98.99
71778;BME280;59609;52.430;4.668;2023-05-22T05:34:32;101528.91;;;16.73;99.74
71778;BME280;59609;52.430;4.668;2023-05-22T05:36:57;101519.78;;;16.79;100.00
71778;BME280;59609;52.430;4.668;2023-05-22T05:39:23;101509.44;;;16.73;100.00
71778;BME280;59609;52.430;4.668;2023-05-22T05:41:48;101524.00;;;16.75;100.00
71778;BME280;59609;52.430;4.668;2023-05-22T05:44:14;101515.28;;;16.78;100.00
71778;BME280;59609;52.430;4.668;2023-05-22T05:46:39;101518.34;;;16.83;100.00
71778;BME280;59609;52.430;4.668;2023-05-22T05:49:06;101519.19;;;16.69;100.00
71778;BME280;59609;52.430;4.668;2023-05-22T05:51:34;101529.88;;;16.80;100.00
71778;BME280;59609;52.430;4.668;2023-05-22T05:53:59;101520.72;;;16.72;100.00
71778;BME280;59609;52.430;4.668;2023-05-22T05:56:25;101522.28;;;16.74;100.00
71778;BME280;59609;52.430;4.668;2023-05-22T05:58:51;101531.44;;;16.97;100.00
71778;BME280;59609;52.430;4.668;2023-05-22T06:01:16;101540.00;;;17.46;100.00
71778;BME280;59609;52.430;4.668;2023-05-22T06:03:43;101555.78;;;17.90;98.50
71778;BME280;59609;52.430;4.668;2023-05-22T06:06:08;101550.28;;;18.39;97.13
71778;BME280;59609;52.430;4.668;2023-05-22T06:08:34;101562.28;;;18.54;94.75
71778;BME280;59609;52.430;4.668;2023-05-22T06:11:00;101567.19;;;18.52;94.24
71778;BME280;59609;52.430;4.668;2023-05-22T06:13:26;101569.69;;;18.47;93.85
71778;BME280;59609;52.430;4.668;2023-05-22T06:15:51;101563.97;;;18.55;94.30
71778;BME280;59609;52.430;4.668;2023-05-22T06:18:19;101570.94;;;18.66;94.04
71778;BME280;59609;52.430;4.668;2023-05-22T06:20:44;101574.56;;;18.87;93.74
71778;BME280;59609;52.430;4.668;2023-05-22T06:23:10;101575.31;;;19.02;93.18
71778;BME280;59609;52.430;4.668;2023-05-22T06:25:36;101567.34;;;19.34;91.86
71778;BME280;59609;52.430;4.668;2023-05-22T06:28:04;101562.47;;;19.42;90.78
71778;BME280;59609;52.430;4.668;2023-05-22T06:30:30;101570.09;;;19.68;91.28
71778;BME280;59609;52.430;4.668;2023-05-22T06:32:55;101560.63;;;19.63;90.17
71778;BME280;59609;52.430;4.668;2023-05-22T06:35:21;101572.56;;;19.84;90.59
71778;BME280;59609;52.430;4.668;2023-05-22T06:37:46;101565.69;;;19.93;90.06
71778;BME280;59609;52.430;4.668;2023-05-22T06:40:12;101572.94;;;20.42;88.06
71778;BME280;59609;52.430;4.668;2023-05-22T06:42:37;101570.13;;;20.35;87.36
71778;BME280;59609;52.430;4.668;2023-05-22T06:45:03;101562.84;;;20.67;86.54
71778;BME280;59609;52.430;4.668;2023-05-22T06:47:29;101569.06;;;20.69;85.74
71778;BME280;59609;52.430;4.668;2023-05-22T06:49:55;101564.56;;;20.68;86.83
71778;BME280;59609;52.430;4.668;2023-05-22T06:52:20;101568.19;;;21.08;84.24
71778;BME280;59609;52.430;4.668;2023-05-22T06:54:46;101565.72;;;21.58;83.60
71778;BME280;59609;52.430;4.668;2023-05-22T06:57:11;101570.50;;;21.88;82.44
71778;BME280;59609;52.430;4.668;2023-05-22T06:59:36;101561.47;;;22.31;80.86
71778;BME280;59609;52.430;4.668;2023-05-22T07:02:02;101569.34;;;22.47;80.20
71778;BME280;59609;52.430;4.668;2023-05-22T07:04:27;101571.59;;;22.32;78.55
71778;BME280;59609;52.430;4.668;2023-05-22T07:06:53;101579.38;;;22.30;78.19
71778;BME280;59609;52.430;4.668;2023-05-22T07:09:18;101576.91;;;22.08;79.92
71778;BME280;59609;52.430;4.668;2023-05-22T07:11:44;101571.00;;;21.79;80.52
71778;BME280;59609;52.430;4.668;2023-05-22T07:14:10;101577.00;;;21.38;82.79
71778;BME280;59609;52.430;4.668;2023-05-22T07:16:40;101579.25;;;21.67;82.89
71778;BME280;59609;52.430;4.668;2023-05-22T07:19:06;101582.88;;;21.81;81.33
71778;BME280;59609;52.430;4.668;2023-05-22T07:21:33;101582.91;;;22.19;80.06
71778;BME280;59609;52.430;4.668;2023-05-22T07:24:03;101588.69;;;22.30;79.11
71778;BME280;59609;52.430;4.668;2023-05-22T07:26:36;101584.72;;;22.06;79.59
71778;BME280;59609;52.430;4.668;2023-05-22T07:29:02;101591.50;;;22.62;80.37
71778;BME280;59609;52.430;4.668;2023-05-22T07:31:27;101586.63;;;23.00;78.68
71778;BME280;59609;52.430;4.668;2023-05-22T07:33:53;101589.69;;;22.74;78.11
71778;BME280;59609;52.430;4.668;2023-05-22T07:36:19;101597.78;;;22.57;78.08
71778;BME280;59609;52.430;4.668;2023-05-22T07:38:45;101593.66;;;22.28;79.11
71778;BME280;59609;52.430;4.668;2023-05-22T07:41:10;101596.28;;;22.23;79.37
71778;BME280;59609;52.430;4.668;2023-05-22T07:43:36;101593.09;;;22.13;80.57
71778;BME280;59609;52.430;4.668;2023-05-22T07:46:01;101597.28;;;21.97;78.72
71778;BME280;59609;52.430;4.668;2023-05-22T07:48:26;101589.25;;;22.39;77.17
71778;BME280;59609;52.430;4.668;2023-05-22T07:50:52;101600.06;;;22.73;76.25
71778;BME280;59609;52.430;4.668;2023-05-22T07:53:17;101595.97;;;23.19;75.16
71778;BME280;59609;52.430;4.668;2023-05-22T07:55:42;101595.69;;;23.27;75.48
71778;BME280;59609;52.430;4.668;2023-05-22T07:58:08;101599.97;;;23.54;73.43
71778;BME280;59609;52.430;4.668;2023-05-22T08:00:35;101595.34;;;23.78;70.63
71778;BME280;59609;52.430;4.668;2023-05-22T08:03:00;101602.72;;;23.36;71.34
71778;BME280;59609;52.430;4.668;2023-05-22T08:05:26;101588.84;;;23.41;71.37
71778;BME280;59609;52.430;4.668;2023-05-22T08:07:51;101592.94;;;23.45;70.69
71778;BME280;59609;52.430;4.668;2023-05-22T08:10:17;101606.44;;;23.12;71.37
71778;BME280;59609;52.430;4.668;2023-05-22T08:12:43;101603.25;;;23.51;71.58
71778;BME280;59609;52.430;4.668;2023-05-22T08:15:09;101614.56;;;23.63;70.07
71778;BME280;59609;52.430;4.668;2023-05-22T08:17:35;101611.97;;;23.43;69.52
71778;BME280;59609;52.430;4.668;2023-05-22T08:20:00;101600.97;;;23.17;70.13
71778;BME280;59609;52.430;4.668;2023-05-22T08:22:28;101612.31;;;23.71;69.75
71778;BME280;59609;52.430;4.668;2023-05-22T08:24:54;101606.75;;;23.83;70.53
71778;BME280;59609;52.430;4.668;2023-05-22T08:27:19;101605.81;;;23.71;67.50
71778;BME280;59609;52.430;4.668;2023-05-22T08:29:44;101599.94;;;23.90;68.06
71778;BME280;59609;52.430;4.668;2023-05-22T08:32:10;101610.72;;;23.93;69.55
71778;BME280;59609;52.430;4.668;2023-05-22T08:34:35;101607.78;;;23.88;68.11
71778;BME280;59609;52.430;4.668;2023-05-22T08:37:01;101607.91;;;23.75;68.31
71778;BME280;59609;52.430;4.668;2023-05-22T08:39:27;101608.59;;;24.07;67.15
71778;BME280;59609;52.430;4.668;2023-05-22T08:41:52;101612.22;;;24.14;66.91
71778;BME280;59609;52.430;4.668;2023-05-22T08:44:18;101610.00;;;24.46;65.13
71778;BME280;59609;52.430;4.668;2023-05-22T08:46:45;101613.47;;;24.48;66.16
71778;BME280;59609;52.430;4.668;2023-05-22T08:49:11;101611.53;;;24.48;66.14
71778;BME280;59609;52.430;4.668;2023-05-22T08:51:39;101609.84;;;24.11;66.66
71778;BME280;59609;52.430;4.668;2023-05-22T08:54:05;101610.81;;;24.05;65.57
71778;BME280;59609;52.430;4.668;2023-05-22T08:56:34;101615.25;;;24.31;65.88
71778;BME280;59609;52.430;4.668;2023-05-22T08:59:01;101599.66;;;24.58;64.43
71778;BME280;59609;52.430;4.668;2023-05-22T09:01:28;101604.56;;;24.63;64.93
71778;BME280;59609;52.430;4.668;2023-05-22T09:03:58;101603.41;;;24.52;62.97
71778;BME280;59609;52.430;4.668;2023-05-22T09:06:24;101603.56;;;25.10;62.58
71778;BME280;59609;52.430;4.668;2023-05-22T09:08:49;101595.34;;;25.20;62.51
71778;BME280;59609;52.430;4.668;2023-05-22T09:11:16;101588.94;;;24.90;62.27
71778;BME280;59609;52.430;4.668;2023-05-22T09:13:41;101606.25;;;25.17;61.95
71778;BME280;59609;52.430;4.668;2023-05-22T09:16:10;101599.50;;;25.29;61.69
71778;BME280;59609;52.430;4.668;2023-05-22T09:18:40;101597.94;;;25.22;60.89
71778;BME280;59609;52.430;4.668;2023-05-22T09:21:09;101593.31;;;24.74;61.71
71778;BME280;59609;52.430;4.668;2023-05-22T09:23:35;101608.38;;;25.21;61.05
71778;BME280;59609;52.430;4.668;2023-05-22T09:26:01;101601.72;;;25.62;61.96
71778;BME280;59609;52.430;4.668;2023-05-22T09:28:34;101606.16;;;25.23;60.07
71778;BME280;59609;52.430;4.668;2023-05-22T09:31:01;101608.97;;;25.70;59.78
71778;BME280;59609;52.430;4.668;2023-05-22T09:33:28;101604.31;;;25.52;59.55
71778;BME280;59609;52.430;4.668;2023-05-22T09:35:54;101606.00;;;25.76;58.86
71778;BME280;59609;52.430;4.668;2023-05-22T09:38:27;101602.44;;;25.46;59.34
71778;BME280;59609;52.430;4.668;2023-05-22T09:40:54;101600.34;;;25.76;59.49
71778;BME280;59609;52.430;4.668;2023-05-22T09:43:21;101606.41;;;25.68;58.60
71778;BME280;59609;52.430;4.668;2023-05-22T09:45:48;101605.53;;;25.33;59.17
71778;BME280;59609;52.430;4.668;2023-05-22T09:48:16;101602.97;;;25.54;59.22
71778;BME280;59609;52.430;4.668;2023-05-22T09:50:46;101591.69;;;25.54;58.65
71778;BME280;59609;52.430;4.668;2023-05-22T09:53:15;101593.88;;;25.64;60.20
71778;BME280;59609;52.430;4.668;2023-05-22T09:55:41;101592.78;;;25.65;59.16
71778;BME280;59609;52.430;4.668;2023-05-22T09:58:09;101589.97;;;25.53;58.44
71778;BME280;59609;52.430;4.668;2023-05-22T10:00:38;101590.19;;;25.64;57.76
71778;BME280;59609;52.430;4.668;2023-05-22T10:03:08;101593.34;;;25.79;57.22
71778;BME280;59609;52.430;4.668;2023-05-22T10:05:36;101594.34;;;25.73;56.78
71778;BME280;59609;52.430;4.668;2023-05-22T10:08:24;101591.56;;;26.41;55.81
71778;BME280;59609;52.430;4.668;2023-05-22T10:10:51;101589.91;;;26.28;56.50
71778;BME280;59609;52.430;4.668;2023-05-22T10:13:17;101595.88;;;26.60;55.91
71778;BME280;59609;52.430;4.668;2023-05-22T10:15:43;101586.78;;;26.41;56.77
71778;BME280;59609;52.430;4.668;2023-05-22T10:18:11;101595.19;;;26.98;55.50
71778;BME280;59609;52.430;4.668;2023-05-22T10:20:36;101594.34;;;26.69;56.01
71778;BME280;59609;52.430;4.668;2023-05-22T10:23:02;101597.31;;;26.46;55.73
71778;BME280;59609;52.430;4.668;2023-05-22T10:25:28;101592.00;;;26.94;55.33
71778;BME280;59609;52.430;4.668;2023-05-22T10:27:55;101586.19;;;26.84;54.62
71778;BME280;59609;52.430;4.668;2023-05-22T10:33:10;101579.41;;;27.19;54.34
71778;BME280;59609;52.430;4.668;2023-05-22T10:40:58;101572.00;;;27.51;53.15
71778;BME280;59609;52.430;4.668;2023-05-22T10:43:23;101583.47;;;27.61;52.26
71778;BME280;59609;52.430;4.668;2023-05-22T10:46:00;101566.91;;;27.53;52.05
71778;BME280;59609;52.430;4.668;2023-05-22T10:48:27;101559.81;;;27.94;51.36
71778;BME280;59609;52.430;4.668;2023-05-22T10:50:52;101564.50;;;27.83;51.58
71778;BME280;59609;52.430;4.668;2023-05-22T10:53:20;101563.50;;;27.34;52.10
71778;BME280;59609;52.430;4.668;2023-05-22T10:55:54;101561.94;;;27.43;52.23
71778;BME280;59609;52.430;4.668;2023-05-22T10:58:34;101565.28;;;28.49;49.60
71778;BME280;59609;52.430;4.668;2023-05-22T11:06:40;101561.78;;;27.93;51.21
71778;BME280;59609;52.430;4.668;2023-05-22T11:09:28;101559.19;;;28.08;49.37
71778;BME280;59609;52.430;4.668;2023-05-22T11:14:46;101566.72;;;28.25;49.16
71778;BME280;59609;52.430;4.668;2023-05-22T11:17:15;101568.97;;;28.49;48.79
71778;BME280;59609;52.430;4.668;2023-05-22T11:19:42;101561.66;;;27.83;49.45
71778;BME280;59609;52.430;4.668;2023-05-22T11:22:08;101551.38;;;28.47;49.17
71778;BME280;59609;52.430;4.668;2023-05-22T11:24:33;101559.84;;;29.06;48.93
71778;BME280;59609;52.430;4.668;2023-05-22T11:27:04;101567.47;;;28.95;48.29
71778;BME280;59609;52.430;4.668;2023-05-22T11:29:31;101562.44;;;28.49;48.95
71778;BME280;59609;52.430;4.668;2023-05-22T11:31:57;101572.59;;;27.96;49.20
71778;BME280;59609;52.430;4.668;2023-05-22T11:34:24;101565.66;;;27.27;50.94
71778;BME280;59609;52.430;4.668;2023-05-22T11:36:51;101572.56;;;27.53;50.38
71778;BME280;59609;52.430;4.668;2023-05-22T11:39:16;101570.41;;;27.43;50.90
71778;BME280;59609;52.430;4.668;2023-05-22T11:41:42;101566.44;;;26.89;52.13
71778;BME280;59609;52.430;4.668;2023-05-22T11:44:07;101554.25;;;27.05;51.59
71778;BME280;59609;52.430;4.668;2023-05-22T11:46:33;101566.00;;;27.91;50.90
71778;BME280;59609;52.430;4.668;2023-05-22T11:48:59;101560.34;;;28.12;49.60
71778;BME280;59609;52.430;4.668;2023-05-22T11:51:26;101567.22;;;28.43;48.15
71778;BME280;59609;52.430;4.668;2023-05-22T11:53:52;101556.66;;;27.13;50.74
71778;BME280;59609;52.430;4.668;2023-05-22T11:56:19;101574.00;;;27.00;51.38
71778;BME280;59609;52.430;4.668;2023-05-22T11:58:49;101563.84;;;27.38;52.03
71778;BME280;59609;52.430;4.668;2023-05-22T12:01:16;101568.81;;;28.34;49.41
71778;BME280;59609;52.430;4.668;2023-05-22T12:03:41;101567.97;;;27.47;50.73
71778;BME280;59609;52.430;4.668;2023-05-22T12:06:07;101573.28;;;27.27;50.73
71778;BME280;59609;52.430;4.668;2023-05-22T12:08:33;101574.69;;;27.07;51.18
71778;BME280;59609;52.430;4.668;2023-05-22T12:10:59;101575.72;;;27.18;51.41
71778;BME280;59609;52.430;4.668;2023-05-22T12:13:28;101568.66;;;27.21;51.21
71778;BME280;59609;52.430;4.668;2023-05-22T12:15:57;101571.06;;;27.67;50.93
71778;BME280;59609;52.430;4.668;2023-05-22T12:18:24;101570.16;;;27.83;50.24
71778;BME280;59609;52.430;4.668;2023-05-22T12:20:55;101578.06;;;28.03;49.68
71778;BME280;59609;52.430;4.668;2023-05-22T12:23:22;101585.63;;;27.37;51.14
71778;BME280;59609;52.430;4.668;2023-05-22T12:25:58;101583.59;;;27.71;50.33
71778;BME280;59609;52.430;4.668;2023-05-22T12:28:25;101581.16;;;27.80;49.33
71778;BME280;59609;52.430;4.668;2023-05-22T12:30:54;101586.72;;;27.36;50.57
71778;BME280;59609;52.430;4.668;2023-05-22T12:33:27;101585.28;;;28.10;49.25
71778;BME280;59609;52.430;4.668;2023-05-22T12:35:52;101585.72;;;28.51;48.78
71778;BME280;59609;52.430;4.668;2023-05-22T12:38:21;101590.81;;;28.76;47.19
71778;BME280;59609;52.430;4.668;2023-05-22T12:40:47;101589.63;;;28.18;48.37
71778;BME280;59609;52.430;4.668;2023-05-22T12:43:13;101593.94;;;28.26;47.60
71778;BME280;59609;52.430;4.668;2023-05-22T12:45:39;101588.03;;;28.54;47.53
71778;BME280;59609;52.430;4.668;2023-05-22T12:48:07;101585.75;;;28.78;47.16
71778;BME280;59609;52.430;4.668;2023-05-22T12:50:33;101583.47;;;29.11;45.89
71778;BME280;59609;52.430;4.668;2023-05-22T12:53:02;101584.88;;;28.50;46.78
71778;BME280;59609;52.430;4.668;2023-05-22T12:55:27;101586.94;;;28.87;46.39
71778;BME280;59609;52.430;4.668;2023-05-22T12:57:52;101581.09;;;28.98;45.76
71778;BME280;59609;52.430;4.668;2023-05-22T13:00:18;101585.25;;;29.23;45.52
71778;BME280;59609;52.430;4.668;2023-05-22T13:02:43;101588.88;;;29.45;44.86
71778;BME280;59609;52.430;4.668;2023-05-22T13:05:09;101580.81;;;29.32;44.55
71778;BME280;59609;52.430;4.668;2023-05-22T13:07:36;101591.53;;;29.25;44.72
71778;BME280;59609;52.430;4.668;2023-05-22T13:10:03;101597.63;;;29.43;44.19
71778;BME280;59609;52.430;4.668;2023-05-22T13:12:29;101598.78;;;29.10;44.19
71778;BME280;59609;52.430;4.668;2023-05-22T13:14:56;101596.03;;;29.57;44.32
71778;BME280;59609;52.430;4.668;2023-05-22T13:17:22;101606.63;;;29.25;45.20
71778;BME280;59609;52.430;4.668;2023-05-22T13:19:47;101602.00;;;28.87;45.56